createdAt,value
2017-09-02T00:02:08.609Z,3.30
2017-09-02T00:04:41.382Z,4.77
2017-09-02T00:07:12.086Z,5.07
2017-09-02T00:09:42.756Z,5.03
2017-09-02T00:12:11.208Z,4.27
2017-09-02T00:14:44.704Z,5.50
2017-09-02T00:17:13.111Z,3.10
2017-09-02T00:19:41.569Z,5.20
2017-09-02T00:22:09.960Z,4.00
2017-09-02T00:24:40.365Z,3.73
2017-09-02T00:27:08.747Z,7.20
2017-09-02T00:29:37.232Z,7.80
2017-09-02T00:32:06.523Z,5.90
2017-09-02T00:34:35.010Z,6.63
2017-09-02T00:37:03.387Z,6.27
2017-09-02T00:39:32.658Z,12.73
2017-09-02T00:42:02.933Z,5.10
2017-09-02T00:44:31.303Z,4.20
2017-09-02T00:47:01.707Z,5.87
2017-09-02T00:49:30.063Z,7.27
2017-09-02T00:52:00.720Z,4.47
2017-09-02T00:54:29.102Z,6.63
2017-09-02T00:57:00.750Z,8.77
2017-09-02T00:59:29.185Z,6.13
2017-09-02T01:01:59.773Z,5.13
2017-09-02T01:04:28.173Z,10.30
2017-09-02T01:06:56.549Z,8.43
2017-09-02T01:09:24.917Z,6.30
2017-09-02T01:11:55.530Z,7.83
2017-09-02T01:14:28.222Z,4.90
2017-09-02T01:16:58.901Z,4.67
2017-09-02T01:19:27.261Z,9.70
2017-09-02T01:21:55.695Z,5.90
2017-09-02T01:24:26.426Z,5.50
2017-09-02T01:27:01.267Z,7.70
2017-09-02T01:29:31.583Z,10.17
2017-09-02T01:31:59.938Z,6.40
2017-09-02T01:34:28.442Z,8.03
2017-09-02T01:36:56.875Z,13.03
2017-09-02T01:39:27.554Z,6.33
2017-09-02T01:41:55.929Z,6.40
2017-09-02T01:44:26.472Z,9.63
2017-09-02T01:46:59.379Z,6.37
2017-09-02T01:49:32.123Z,6.40
2017-09-02T01:52:00.512Z,11.90
2017-09-02T01:54:31.069Z,8.47
2017-09-02T01:57:01.578Z,10.27
2017-09-02T01:59:30.040Z,9.73
2017-09-02T02:01:58.392Z,13.97
2017-09-02T02:04:26.779Z,4.60
2017-09-02T02:06:55.288Z,6.90
2017-09-02T02:09:23.677Z,4.97
2017-09-02T02:11:52.039Z,9.13
2017-09-02T02:14:20.421Z,5.87
2017-09-02T02:16:48.796Z,10.80
2017-09-02T02:19:17.277Z,6.10
2017-09-02T02:21:45.634Z,6.00
2017-09-02T02:24:14.006Z,7.50
2017-09-02T02:26:42.361Z,7.67
2017-09-02T02:29:11.726Z,9.03
2017-09-02T02:31:40.091Z,10.30
2017-09-02T02:34:08.572Z,9.20
2017-09-02T02:36:36.925Z,6.47
2017-09-02T02:39:05.301Z,5.87
2017-09-02T02:41:33.663Z,8.77
2017-09-02T02:44:02.282Z,5.73
2017-09-02T02:46:30.658Z,7.97
2017-09-02T02:48:59.034Z,5.70
2017-09-02T02:51:27.399Z,7.20
2017-09-02T02:53:55.799Z,7.67
2017-09-02T02:56:24.170Z,6.97
2017-09-02T02:58:52.556Z,9.10
2017-09-02T03:01:20.913Z,5.57
2017-09-02T03:03:49.309Z,9.50
2017-09-02T03:06:17.691Z,6.37
2017-09-02T03:08:46.167Z,7.20
2017-09-02T03:11:14.558Z,8.63
2017-09-02T03:13:43.032Z,13.33
2017-09-02T03:16:11.390Z,10.03
2017-09-02T03:18:39.754Z,8.57
2017-09-02T03:21:08.178Z,6.73
2017-09-02T03:23:36.526Z,6.93
2017-09-02T03:26:04.898Z,15.67
2017-09-02T03:28:33.246Z,6.93
2017-09-02T03:31:01.690Z,16.00
2017-09-02T03:33:30.149Z,8.90
2017-09-02T03:35:58.911Z,13.53
2017-09-02T03:38:27.261Z,8.13
2017-09-02T03:40:55.701Z,6.57
2017-09-02T03:43:24.094Z,10.60
2017-09-02T03:45:52.558Z,18.77
2017-09-02T03:48:21.845Z,9.13
2017-09-02T03:50:51.263Z,5.47
2017-09-02T03:53:19.622Z,9.30
2017-09-02T03:55:48.122Z,15.40
2017-09-02T03:58:16.602Z,8.83
2017-09-02T04:00:45.082Z,9.47
2017-09-02T04:03:13.438Z,8.83
2017-09-02T04:05:41.797Z,13.67
2017-09-02T04:08:10.170Z,8.23
2017-09-02T04:10:38.702Z,7.40
2017-09-02T04:13:08.110Z,12.63
2017-09-02T04:15:36.483Z,12.07
2017-09-02T04:18:04.861Z,7.37
2017-09-02T04:20:33.244Z,11.90
2017-09-02T04:23:01.642Z,11.00
2017-09-02T04:25:30.089Z,7.17
2017-09-02T04:27:58.466Z,11.27
2017-09-02T04:30:26.853Z,8.57
2017-09-02T04:32:55.222Z,7.03
2017-09-02T04:35:24.630Z,10.20
2017-09-02T04:37:53.001Z,10.00
2017-09-02T04:40:21.358Z,8.87
2017-09-02T04:42:49.746Z,10.80
2017-09-02T04:45:18.105Z,12.93
2017-09-02T04:47:47.461Z,9.47
2017-09-02T04:50:15.860Z,11.37
2017-09-02T04:52:44.222Z,10.13
2017-09-02T04:55:12.594Z,6.77
2017-09-02T04:57:41.058Z,7.50
2017-09-02T05:00:09.418Z,9.87
2017-09-02T05:02:37.801Z,9.50
2017-09-02T05:05:06.195Z,14.03
2017-09-02T05:07:34.668Z,10.87
2017-09-02T05:10:03.157Z,14.63
2017-09-02T05:12:31.513Z,10.60
2017-09-02T05:14:59.881Z,12.10
2017-09-02T05:17:28.242Z,9.00
2017-09-02T05:19:56.675Z,9.37
2017-09-02T05:22:25.049Z,8.83
2017-09-02T05:24:53.521Z,8.97
2017-09-02T05:27:21.878Z,8.47
2017-09-02T05:29:50.278Z,9.40
2017-09-02T05:32:18.767Z,10.33
2017-09-02T05:34:47.246Z,8.40
2017-09-02T05:37:15.597Z,9.90
2017-09-02T05:39:43.965Z,9.83
2017-09-02T05:42:12.378Z,8.50
2017-09-02T05:44:40.868Z,12.63
2017-09-02T05:47:09.226Z,8.70
2017-09-02T05:49:37.726Z,14.57
2017-09-02T05:52:06.203Z,8.27
2017-09-02T05:54:35.501Z,11.70
2017-09-02T05:57:03.989Z,11.03
2017-09-02T05:59:32.359Z,12.40
2017-09-02T06:02:00.757Z,8.40
2017-09-02T06:04:30.142Z,10.20
2017-09-02T06:06:58.619Z,11.67
2017-09-02T06:09:26.974Z,10.00
2017-09-02T06:11:55.378Z,7.40
2017-09-02T06:14:24.775Z,11.33
2017-09-02T06:16:53.365Z,8.67
2017-09-02T06:19:21.723Z,9.93
2017-09-02T06:21:52.078Z,8.47
2017-09-02T06:24:20.542Z,8.53
2017-09-02T06:26:49.026Z,8.60
2017-09-02T06:29:17.406Z,9.40
2017-09-02T06:31:45.886Z,7.57
2017-09-02T06:34:14.257Z,7.80
2017-09-02T06:36:43.613Z,9.17
2017-09-02T06:39:12.152Z,7.43
2017-09-02T06:41:40.627Z,7.77
2017-09-02T06:44:09.013Z,8.97
2017-09-02T06:46:37.486Z,9.93
2017-09-02T06:49:05.838Z,8.60
2017-09-02T06:51:34.214Z,7.80
2017-09-02T06:54:02.618Z,7.80
2017-09-02T06:56:32.023Z,8.40
2017-09-02T06:59:00.414Z,11.80
2017-09-02T07:01:28.792Z,6.40
2017-09-02T07:03:57.146Z,8.07
2017-09-02T07:06:25.647Z,8.93
2017-09-02T07:08:54.035Z,6.83
2017-09-02T07:11:22.506Z,10.57
2017-09-02T07:13:50.982Z,11.07
2017-09-02T07:16:19.354Z,6.83
2017-09-02T07:18:47.724Z,8.00
2017-09-02T07:21:16.078Z,10.33
2017-09-02T07:23:44.455Z,6.90
2017-09-02T07:26:12.901Z,7.23
2017-09-02T07:28:41.346Z,6.13
2017-09-02T07:31:09.708Z,5.97
2017-09-02T07:33:38.083Z,6.70
2017-09-02T07:36:11.424Z,7.63
2017-09-02T07:38:39.862Z,7.00
2017-09-02T07:41:08.229Z,6.07
2017-09-02T07:43:36.646Z,5.60
2017-09-02T07:46:05.106Z,4.60
2017-09-02T07:48:35.438Z,7.40
2017-09-02T07:51:03.794Z,6.87
2017-09-02T07:53:32.199Z,8.67
2017-09-02T07:56:04.285Z,4.30
2017-09-02T07:58:33.597Z,5.00
2017-09-02T08:01:01.956Z,5.60
2017-09-02T08:03:31.287Z,8.43
2017-09-02T08:06:00.845Z,3.20
2017-09-02T08:08:29.326Z,3.47
2017-09-02T08:10:57.685Z,3.50
2017-09-02T08:13:26.210Z,4.57
2017-09-02T08:15:55.482Z,8.40
2017-09-02T08:18:23.843Z,7.27
2017-09-02T08:20:53.179Z,7.57
2017-09-02T08:23:21.537Z,4.13
2017-09-02T08:25:49.909Z,2.87
2017-09-02T08:28:18.263Z,4.57
2017-09-02T08:30:46.673Z,2.90
2017-09-02T08:33:15.071Z,5.10
2017-09-02T08:35:43.529Z,6.07
2017-09-02T08:38:11.893Z,4.33
2017-09-02T08:40:40.301Z,4.30
2017-09-02T08:43:09.586Z,3.93
2017-09-02T08:45:37.973Z,3.17
2017-09-02T08:48:06.987Z,3.43
2017-09-02T08:50:35.443Z,1.70
2017-09-02T08:53:03.822Z,2.17
2017-09-02T08:55:32.202Z,7.33
2017-09-02T08:58:00.574Z,8.70
2017-09-02T09:00:29.845Z,2.73
2017-09-02T09:02:58.221Z,4.50
2017-09-02T09:05:27.553Z,4.60
2017-09-02T09:07:56.871Z,1.70
2017-09-02T09:10:25.237Z,2.80
2017-09-02T09:12:53.668Z,3.30
2017-09-02T09:15:22.067Z,1.33
2017-09-02T09:17:51.497Z,2.13
2017-09-02T09:20:19.866Z,2.77
2017-09-02T09:22:48.246Z,1.77
2017-09-02T09:25:16.639Z,5.23
2017-09-02T09:27:45.023Z,3.33
2017-09-02T09:30:13.393Z,2.63
2017-09-02T09:32:41.770Z,4.20
2017-09-02T09:35:10.121Z,3.93
2017-09-02T09:37:38.536Z,1.70
2017-09-02T09:40:07.009Z,3.43
2017-09-02T09:42:35.495Z,1.30
2017-09-02T09:45:03.845Z,3.70
2017-09-02T09:47:32.341Z,2.73
2017-09-02T09:50:00.722Z,2.90
2017-09-02T09:52:29.093Z,3.93
2017-09-02T09:54:58.425Z,2.63
2017-09-02T09:57:26.830Z,4.23
2017-09-02T09:59:55.266Z,2.10
2017-09-02T10:02:23.625Z,3.87
2017-09-02T10:04:51.999Z,2.23
2017-09-02T10:07:20.398Z,2.10
2017-09-02T10:09:48.768Z,4.27
2017-09-02T10:12:17.259Z,4.20
2017-09-02T10:14:45.638Z,4.20
2017-09-02T10:17:14.003Z,1.93
2017-09-02T10:19:42.495Z,2.60
2017-09-02T10:22:10.857Z,1.33
2017-09-02T10:24:39.250Z,1.20
2017-09-02T10:27:07.826Z,1.47
2017-09-02T10:29:36.182Z,1.27
2017-09-02T10:32:04.537Z,2.00
2017-09-02T10:34:32.911Z,1.57
2017-09-02T10:37:01.269Z,1.80
2017-09-02T10:39:29.723Z,3.90
2017-09-02T10:41:58.098Z,2.17
2017-09-02T10:44:26.505Z,1.03
2017-09-02T10:46:54.878Z,2.33
2017-09-02T10:49:23.242Z,1.80
2017-09-02T10:51:51.777Z,1.53
2017-09-02T10:54:20.198Z,6.13
2017-09-02T10:56:48.674Z,2.37
2017-09-02T10:59:17.278Z,2.67
2017-09-02T11:01:45.755Z,2.10
2017-09-02T11:04:14.236Z,1.90
2017-09-02T11:06:42.721Z,1.53
2017-09-02T11:09:11.204Z,1.60
2017-09-02T11:11:39.581Z,1.70
2017-09-02T11:14:08.064Z,3.07
2017-09-02T11:16:36.449Z,10.10
2017-09-02T11:19:04.819Z,0.97
2017-09-02T11:21:33.215Z,3.13
2017-09-02T11:24:01.575Z,2.90
2017-09-02T11:26:30.029Z,2.57
2017-09-02T11:28:58.413Z,1.27
2017-09-02T11:31:26.818Z,2.20
2017-09-02T11:33:55.201Z,3.17
2017-09-02T11:36:23.606Z,1.70
2017-09-02T11:38:52.053Z,1.17
2017-09-02T11:41:20.427Z,1.07
2017-09-02T11:43:48.891Z,5.03
2017-09-02T11:46:17.261Z,3.97
2017-09-02T11:48:45.636Z,1.73
2017-09-02T11:51:14.259Z,0.97
2017-09-02T11:53:42.626Z,1.20
2017-09-02T11:56:10.982Z,1.57
2017-09-02T11:58:39.358Z,1.33
2017-09-02T12:01:07.738Z,1.17
2017-09-02T12:03:36.218Z,1.53
2017-09-02T12:06:04.697Z,1.70
2017-09-02T12:08:33.077Z,2.40
2017-09-02T12:11:01.463Z,3.63
2017-09-02T12:13:29.860Z,7.77
2017-09-02T12:15:59.237Z,1.47
2017-09-02T12:18:27.626Z,2.00
2017-09-02T12:20:56.922Z,2.03
2017-09-02T12:23:25.325Z,2.20
2017-09-02T12:25:53.683Z,1.37
2017-09-02T12:28:22.160Z,3.43
2017-09-02T12:30:50.558Z,1.77
2017-09-02T12:33:19.088Z,1.37
2017-09-02T12:35:47.928Z,3.50
2017-09-02T12:38:16.328Z,2.43
2017-09-02T12:40:45.706Z,1.60
2017-09-02T12:43:14.161Z,1.10
2017-09-02T12:45:42.523Z,3.63
2017-09-02T12:48:10.901Z,2.43
2017-09-02T12:50:39.267Z,2.80
2017-09-02T12:53:08.698Z,2.20
2017-09-02T12:55:37.083Z,3.03
2017-09-02T12:58:05.438Z,1.23
2017-09-02T13:00:33.831Z,4.07
2017-09-02T13:03:02.224Z,1.33
2017-09-02T13:05:30.615Z,1.40
2017-09-02T13:07:59.075Z,0.80
2017-09-02T13:10:27.560Z,2.00
2017-09-02T13:12:55.930Z,3.03
2017-09-02T13:15:24.305Z,0.77
2017-09-02T13:17:52.685Z,11.03
2017-09-02T13:20:21.065Z,1.20
2017-09-02T13:22:49.417Z,1.33
2017-09-02T13:25:17.838Z,1.50
2017-09-02T13:27:46.197Z,1.07
2017-09-02T13:30:14.578Z,1.60
2017-09-02T13:32:42.941Z,1.53
2017-09-02T13:35:11.437Z,1.97
2017-09-02T13:37:39.795Z,1.40
2017-09-02T13:40:08.193Z,1.03
2017-09-02T13:42:36.567Z,0.70
2017-09-02T13:45:04.950Z,1.43
2017-09-02T13:47:33.334Z,7.30
2017-09-02T13:50:01.736Z,1.23
2017-09-02T13:52:30.095Z,1.93
2017-09-02T13:54:58.489Z,1.57
2017-09-02T13:57:26.850Z,2.17
2017-09-02T13:59:55.239Z,1.23
2017-09-02T14:02:23.710Z,1.10
2017-09-02T14:04:53.042Z,1.47
2017-09-02T14:07:21.427Z,3.27
2017-09-02T14:09:49.801Z,4.90
2017-09-02T14:12:18.165Z,1.30
2017-09-02T14:14:47.458Z,1.33
2017-09-02T14:17:15.921Z,0.93
2017-09-02T14:19:44.300Z,3.67
2017-09-02T14:22:12.792Z,1.60
2017-09-02T14:24:42.098Z,3.17
2017-09-02T14:27:10.481Z,1.53
2017-09-02T14:29:38.949Z,1.37
2017-09-02T14:32:07.443Z,2.63
2017-09-02T14:34:35.826Z,2.07
2017-09-02T14:37:04.383Z,1.20
2017-09-02T14:39:32.760Z,0.90
2017-09-02T14:42:01.135Z,0.93
2017-09-02T14:44:29.669Z,3.90
2017-09-02T14:46:58.042Z,2.77
2017-09-02T14:49:26.846Z,1.13
2017-09-02T14:51:55.223Z,4.43
2017-09-02T14:54:23.612Z,1.83
2017-09-02T14:56:52.013Z,1.10
2017-09-02T14:59:20.381Z,2.00
2017-09-02T15:01:48.781Z,2.63
2017-09-02T15:04:17.161Z,1.60
2017-09-02T15:06:45.526Z,2.23
2017-09-02T15:09:13.886Z,4.07
2017-09-02T15:11:42.266Z,0.73
2017-09-02T15:14:10.623Z,2.83
2017-09-02T15:16:39.021Z,4.03
2017-09-02T15:19:07.433Z,1.90
2017-09-02T15:21:35.798Z,1.23
2017-09-02T15:24:04.206Z,2.10
2017-09-02T15:26:32.733Z,3.60
2017-09-02T15:29:01.096Z,1.93
2017-09-02T15:31:29.476Z,1.60
2017-09-02T15:33:57.839Z,4.00
2017-09-02T15:36:26.220Z,1.57
2017-09-02T15:38:55.605Z,4.03
2017-09-02T15:41:25.029Z,2.67
2017-09-02T15:43:54.383Z,1.47
2017-09-02T15:46:22.877Z,2.80
2017-09-02T15:48:51.772Z,1.80
2017-09-02T15:51:27.514Z,0.93
2017-09-02T15:53:55.922Z,6.17
2017-09-02T15:56:24.331Z,0.90
2017-09-02T15:58:56.254Z,1.80
2017-09-02T16:01:24.706Z,2.30
2017-09-02T16:03:54.029Z,1.03
2017-09-02T16:06:22.381Z,1.03
2017-09-02T16:08:50.767Z,1.73
2017-09-02T16:11:19.146Z,3.93
2017-09-02T16:13:48.474Z,3.83
2017-09-02T16:16:16.846Z,1.63
2017-09-02T16:18:45.251Z,3.03
2017-09-02T16:21:13.610Z,0.90
2017-09-02T16:23:42.006Z,1.73
2017-09-02T16:26:10.367Z,1.97
2017-09-02T16:28:38.769Z,1.27
2017-09-02T16:31:07.172Z,1.00
2017-09-02T16:33:35.566Z,1.60
2017-09-02T16:36:04.710Z,0.90
2017-09-02T16:38:33.157Z,3.23
2017-09-02T16:41:01.524Z,1.20
2017-09-02T16:43:29.958Z,1.90
2017-09-02T16:45:58.355Z,0.90
2017-09-02T16:48:32.397Z,1.00
2017-09-02T16:51:00.768Z,2.03
2017-09-02T16:53:29.165Z,2.10
2017-09-02T16:55:57.530Z,1.10
2017-09-02T16:58:25.933Z,2.40
2017-09-02T17:00:54.311Z,1.10
2017-09-02T17:03:22.722Z,1.57
2017-09-02T17:05:51.092Z,2.73
2017-09-02T17:08:19.499Z,2.20
2017-09-02T17:10:52.323Z,1.33
2017-09-02T17:13:24.808Z,3.50
2017-09-02T17:15:56.366Z,2.30
2017-09-02T17:18:24.759Z,2.70
2017-09-02T17:20:53.137Z,5.10
2017-09-02T17:23:21.518Z,2.17
2017-09-02T17:25:49.879Z,2.43
2017-09-02T17:28:18.259Z,3.10
2017-09-02T17:30:46.659Z,5.33
2017-09-02T17:33:21.207Z,2.17
2017-09-02T17:35:49.562Z,1.70
2017-09-02T17:38:19.862Z,1.20
2017-09-02T17:40:48.230Z,1.63
2017-09-02T17:43:16.622Z,1.80
2017-09-02T17:45:45.015Z,2.03
2017-09-02T17:48:13.419Z,5.00
2017-09-02T17:50:41.819Z,4.00
2017-09-02T17:53:10.200Z,5.80
2017-09-02T17:55:38.590Z,4.60
2017-09-02T17:58:06.998Z,2.30
2017-09-02T18:00:36.403Z,2.60
2017-09-02T18:03:04.792Z,2.40
2017-09-02T18:05:33.158Z,1.87
2017-09-02T18:08:01.543Z,2.67
2017-09-02T18:10:29.911Z,2.40
2017-09-02T18:12:58.305Z,1.70
2017-09-02T18:15:26.685Z,2.03
2017-09-02T18:17:55.073Z,2.47
2017-09-02T18:20:25.346Z,1.47
2017-09-02T18:22:59.609Z,2.27
2017-09-02T18:25:27.998Z,1.80
2017-09-02T18:27:56.382Z,3.80
2017-09-02T18:30:26.765Z,2.90
2017-09-02T18:32:57.078Z,3.73
2017-09-02T18:35:25.466Z,2.23
2017-09-02T18:37:53.845Z,2.40
2017-09-02T18:40:22.218Z,3.93
2017-09-02T18:42:53.533Z,1.40
2017-09-02T18:45:21.889Z,1.50
2017-09-02T18:47:50.270Z,2.60
2017-09-02T18:50:18.634Z,2.47
2017-09-02T18:52:47.022Z,2.03
2017-09-02T18:55:15.433Z,1.83
2017-09-02T18:57:43.839Z,2.33
2017-09-02T19:00:13.132Z,3.43
2017-09-02T19:02:43.438Z,2.63
2017-09-02T19:05:11.810Z,2.67
2017-09-02T19:07:41.138Z,2.90
2017-09-02T19:10:09.520Z,4.60
2017-09-02T19:12:47.971Z,4.40
2017-09-02T19:15:18.747Z,4.23
2017-09-02T19:17:51.604Z,4.20
2017-09-02T19:20:22.194Z,5.20
2017-09-02T19:22:52.638Z,6.17
2017-09-02T19:25:21.075Z,6.20
2017-09-02T19:27:49.441Z,6.60
2017-09-02T19:30:17.858Z,5.30
2017-09-02T19:32:47.307Z,9.30
2017-09-02T19:35:19.946Z,11.17
2017-09-02T19:37:48.389Z,13.07
2017-09-02T19:40:16.843Z,9.67
2017-09-02T19:42:47.554Z,8.03
2017-09-02T19:45:22.046Z,9.83
2017-09-02T19:47:52.359Z,10.47
2017-09-02T19:50:20.724Z,10.53
2017-09-02T19:52:49.109Z,10.53
2017-09-02T19:55:17.505Z,10.33
2017-09-02T19:57:45.924Z,9.10
2017-09-02T20:00:16.270Z,9.83
2017-09-02T20:02:45.578Z,9.03
2017-09-02T20:05:20.463Z,13.03
2017-09-02T20:07:49.146Z,9.67
2017-09-02T20:10:17.571Z,10.13
2017-09-02T20:12:45.930Z,8.27
2017-09-02T20:15:14.308Z,8.77
2017-09-02T20:17:42.696Z,11.73
2017-09-02T20:20:11.115Z,7.60
2017-09-02T20:22:40.488Z,6.40
2017-09-02T20:25:09.824Z,6.70
2017-09-02T20:27:38.190Z,7.13
2017-09-02T20:30:07.551Z,7.50
2017-09-02T20:32:35.923Z,11.63
2017-09-02T20:35:04.318Z,9.17
2017-09-02T20:37:33.618Z,8.40
2017-09-02T20:40:02.967Z,7.10
2017-09-02T20:42:34.713Z,10.83
2017-09-02T20:45:06.257Z,10.23
2017-09-02T20:47:34.885Z,12.00
2017-09-02T20:50:03.316Z,9.20
2017-09-02T20:52:32.630Z,11.60
2017-09-02T20:55:01.002Z,10.50
2017-09-02T20:57:29.388Z,11.53
2017-09-02T20:59:57.770Z,10.30
2017-09-02T21:02:26.195Z,9.10
2017-09-02T21:04:55.687Z,8.63
2017-09-02T21:07:24.105Z,11.20
2017-09-02T21:09:54.419Z,9.10
2017-09-02T21:12:23.725Z,9.10
2017-09-02T21:14:52.082Z,8.50
2017-09-02T21:17:21.422Z,11.27
2017-09-02T21:19:51.709Z,8.50
2017-09-02T21:22:20.103Z,8.80
2017-09-02T21:24:48.458Z,9.30
2017-09-02T21:27:16.846Z,9.70
2017-09-02T21:29:53.205Z,6.40
2017-09-02T21:32:22.503Z,9.47
2017-09-02T21:34:50.894Z,7.20
2017-09-02T21:37:19.282Z,6.27
2017-09-02T21:39:47.639Z,8.30
2017-09-02T21:42:16.028Z,8.60
2017-09-02T21:44:44.407Z,7.53
2017-09-02T21:47:13.715Z,6.17
2017-09-02T21:49:42.104Z,8.83
2017-09-02T21:52:13.611Z,8.40
2017-09-02T21:54:41.997Z,6.87
2017-09-02T21:57:10.354Z,7.50
2017-09-02T21:59:38.759Z,7.50
2017-09-02T22:02:07.128Z,8.53
2017-09-02T22:04:35.506Z,6.20
2017-09-02T22:07:03.863Z,5.90
2017-09-02T22:09:32.250Z,6.70
2017-09-02T22:12:00.618Z,6.13
2017-09-02T22:14:29.011Z,12.13
2017-09-02T22:16:58.337Z,9.23
2017-09-02T22:19:26.730Z,9.80
2017-09-02T22:21:57.028Z,14.40
2017-09-02T22:24:28.691Z,6.17
2017-09-02T22:26:58.034Z,6.60
2017-09-02T22:29:26.431Z,7.00
2017-09-02T22:31:54.890Z,7.70
2017-09-02T22:34:24.224Z,6.80
2017-09-02T22:36:52.590Z,9.67
2017-09-02T22:39:20.985Z,5.93
2017-09-02T22:41:49.352Z,10.70
2017-09-02T22:44:20.889Z,9.83
2017-09-02T22:46:50.156Z,6.80
2017-09-02T22:49:20.486Z,9.33
2017-09-02T22:51:48.839Z,10.43
2017-09-02T22:54:17.228Z,8.30
2017-09-02T22:56:45.591Z,11.57
2017-09-02T22:59:13.974Z,7.93
2017-09-02T23:01:42.353Z,7.70
2017-09-02T23:04:14.463Z,7.33
2017-09-02T23:06:42.821Z,8.50
2017-09-02T23:09:11.176Z,7.00
2017-09-02T23:11:40.564Z,7.20
2017-09-02T23:14:09.847Z,10.50
2017-09-02T23:16:38.247Z,8.20
2017-09-02T23:19:08.537Z,8.73
2017-09-02T23:21:37.867Z,8.43
2017-09-02T23:24:09.282Z,7.90
2017-09-02T23:26:39.604Z,12.00
2017-09-02T23:29:07.974Z,11.00
2017-09-02T23:31:36.359Z,12.20
2017-09-02T23:34:05.674Z,10.20
2017-09-02T23:36:34.158Z,14.13
2017-09-02T23:39:02.526Z,11.37
2017-09-02T23:41:31.038Z,8.43
2017-09-02T23:44:05.238Z,12.40
2017-09-02T23:46:35.554Z,9.67
2017-09-02T23:49:03.906Z,12.00
2017-09-02T23:51:32.281Z,9.37
2017-09-02T23:54:02.554Z,8.80
2017-09-02T23:56:31.109Z,8.10
2017-09-02T23:58:59.466Z,7.00
